sensor_id;sensor_type;location;lat;lon;timestamp;P1;durP1;ratioP1;P2;durP2;ratioP2
38455;SDS011;24237;50.106;20.014;2022-09-29T00:01:41;7.50;;;3.58;;
38455;SDS011;24237;50.106;20.014;2022-09-29T00:04:07;7.65;;;3.80;;
38455;SDS011;24237;50.106;20.014;2022-09-29T00:06:33;9.57;;;4.45;;
38455;SDS011;24237;50.106;20.014;2022-09-29T00:08:59;8.77;;;4.35;;
38455;SDS011;24237;50.106;20.014;2022-09-29T00:11:24;6.13;;;4.22;;
38455;SDS011;24237;50.106;20.014;2022-09-29T00:13:50;11.63;;;4.78;;
38455;SDS011;24237;50.106;20.014;2022-09-29T00:16:15;10.75;;;5.20;;
38455;SDS011;24237;50.106;20.014;2022-09-29T00:18:41;11.35;;;6.07;;
38455;SDS011;24237;50.106;20.014;2022-09-29T00:21:08;11.90;;;6.55;;
38455;SDS011;24237;50.106;20.014;2022-09-29T00:23:59;11.95;;;5.68;;
38455;SDS011;24237;50.106;20.014;2022-09-29T00:26:25;14.07;;;6.90;;
38455;SDS011;24237;50.106;20.014;2022-09-29T00:28:51;15.18;;;6.28;;
38455;SDS011;24237;50.106;20.014;2022-09-29T00:31:26;9.15;;;5.93;;
38455;SDS011;24237;50.106;20.014;2022-09-29T00:33:53;9.15;;;5.90;;
38455;SDS011;24237;50.106;20.014;2022-09-29T00:36:20;11.02;;;6.47;;
38455;SDS011;24237;50.106;20.014;2022-09-29T00:38:46;15.82;;;6.43;;
38455;SDS011;24237;50.106;20.014;2022-09-29T00:41:17;13.30;;;7.25;;
38455;SDS011;24237;50.106;20.014;2022-09-29T00:46:35;13.88;;;7.65;;
38455;SDS011;24237;50.106;20.014;2022-09-29T00:49:14;16.00;;;8.70;;
38455;SDS011;24237;50.106;20.014;2022-09-29T00:51:43;12.65;;;7.30;;
38455;SDS011;24237;50.106;20.014;2022-09-29T00:54:28;12.52;;;6.93;;
38455;SDS011;24237;50.106;20.014;2022-09-29T00:57:00;13.77;;;7.68;;
38455;SDS011;24237;50.106;20.014;2022-09-29T00:59:31;12.93;;;8.32;;
38455;SDS011;24237;50.106;20.014;2022-09-29T01:02:18;15.27;;;8.88;;
38455;SDS011;24237;50.106;20.014;2022-09-29T01:04:46;17.05;;;8.40;;
38455;SDS011;24237;50.106;20.014;2022-09-29T01:07:17;16.98;;;9.13;;
38455;SDS011;24237;50.106;20.014;2022-09-29T01:09:49;18.15;;;9.18;;
38455;SDS011;24237;50.106;20.014;2022-09-29T01:12:17;15.68;;;8.52;;
38455;SDS011;24237;50.106;20.014;2022-09-29T01:14:44;16.92;;;9.52;;
38455;SDS011;24237;50.106;20.014;2022-09-29T01:17:11;16.77;;;9.90;;
38455;SDS011;24237;50.106;20.014;2022-09-29T01:25:36;16.67;;;10.43;;
38455;SDS011;24237;50.106;20.014;2022-09-29T01:37:02;17.48;;;10.45;;
38455;SDS011;24237;50.106;20.014;2022-09-29T01:42:39;16.27;;;9.50;;
38455;SDS011;24237;50.106;20.014;2022-09-29T01:45:28;17.45;;;9.25;;
38455;SDS011;24237;50.106;20.014;2022-09-29T01:47:59;19.00;;;9.73;;
38455;SDS011;24237;50.106;20.014;2022-09-29T01:50:33;20.17;;;10.70;;
38455;SDS011;24237;50.106;20.014;2022-09-29T01:53:05;19.63;;;10.95;;
38455;SDS011;24237;50.106;20.014;2022-09-29T01:55:34;18.45;;;11.48;;
38455;SDS011;24237;50.106;20.014;2022-09-29T01:58:14;17.73;;;10.02;;
38455;SDS011;24237;50.106;20.014;2022-09-29T02:00:52;20.00;;;10.38;;
38455;SDS011;24237;50.106;20.014;2022-09-29T02:03:28;14.48;;;9.43;;
38455;SDS011;24237;50.106;20.014;2022-09-29T02:06:22;18.48;;;10.00;;
38455;SDS011;24237;50.106;20.014;2022-09-29T02:08:52;16.63;;;10.48;;
38455;SDS011;24237;50.106;20.014;2022-09-29T02:11:19;17.83;;;10.35;;
38455;SDS011;24237;50.106;20.014;2022-09-29T02:16:23;22.10;;;9.47;;
38455;SDS011;24237;50.106;20.014;2022-09-29T02:19:05;19.95;;;10.35;;
38455;SDS011;24237;50.106;20.014;2022-09-29T02:21:37;19.13;;;9.23;;
38455;SDS011;24237;50.106;20.014;2022-09-29T02:24:03;16.17;;;8.60;;
38455;SDS011;24237;50.106;20.014;2022-09-29T02:26:31;16.73;;;8.63;;
38455;SDS011;24237;50.106;20.014;2022-09-29T02:28:58;16.73;;;8.38;;
38455;SDS011;24237;50.106;20.014;2022-09-29T02:31:25;14.90;;;8.45;;
38455;SDS011;24237;50.106;20.014;2022-09-29T02:33:51;13.70;;;8.80;;
38455;SDS011;24237;50.106;20.014;2022-09-29T02:41:32;13.73;;;7.65;;
38455;SDS011;24237;50.106;20.014;2022-09-29T02:44:14;15.13;;;7.45;;
38455;SDS011;24237;50.106;20.014;2022-09-29T02:46:55;14.73;;;7.32;;
38455;SDS011;24237;50.106;20.014;2022-09-29T02:52:39;14.77;;;8.38;;
38455;SDS011;24237;50.106;20.014;2022-09-29T02:57:46;15.13;;;9.20;;
38455;SDS011;24237;50.106;20.014;2022-09-29T03:00:17;15.32;;;8.82;;
38455;SDS011;24237;50.106;20.014;2022-09-29T03:02:43;25.05;;;10.40;;
38455;SDS011;24237;50.106;20.014;2022-09-29T03:05:14;20.25;;;11.00;;
38455;SDS011;24237;50.106;20.014;2022-09-29T03:07:42;19.90;;;11.02;;
38455;SDS011;24237;50.106;20.014;2022-09-29T03:10:08;18.02;;;11.18;;
38455;SDS011;24237;50.106;20.014;2022-09-29T03:12:35;19.27;;;10.85;;
38455;SDS011;24237;50.106;20.014;2022-09-29T03:15:01;21.63;;;11.50;;
38455;SDS011;24237;50.106;20.014;2022-09-29T03:17:27;19.20;;;11.35;;
38455;SDS011;24237;50.106;20.014;2022-09-29T03:19:56;24.30;;;11.77;;
38455;SDS011;24237;50.106;20.014;2022-09-29T03:22:22;19.13;;;11.55;;
38455;SDS011;24237;50.106;20.014;2022-09-29T03:24:48;20.63;;;12.23;;
38455;SDS011;24237;50.106;20.014;2022-09-29T03:27:13;19.55;;;12.27;;
38455;SDS011;24237;50.106;20.014;2022-09-29T03:29:39;21.65;;;12.52;;
38455;SDS011;24237;50.106;20.014;2022-09-29T03:32:05;19.95;;;12.82;;
38455;SDS011;24237;50.106;20.014;2022-09-29T03:34:31;24.15;;;13.23;;
38455;SDS011;24237;50.106;20.014;2022-09-29T03:36:57;22.83;;;13.45;;
38455;SDS011;24237;50.106;20.014;2022-09-29T03:39:23;19.00;;;11.38;;
38455;SDS011;24237;50.106;20.014;2022-09-29T03:41:49;19.35;;;10.15;;
38455;SDS011;24237;50.106;20.014;2022-09-29T03:44:15;17.45;;;9.85;;
38455;SDS011;24237;50.106;20.014;2022-09-29T03:46:41;21.58;;;9.82;;
38455;SDS011;24237;50.106;20.014;2022-09-29T03:49:10;10.20;;;6.80;;
38455;SDS011;24237;50.106;20.014;2022-09-29T03:51:42;15.85;;;8.73;;
38455;SDS011;24237;50.106;20.014;2022-09-29T03:54:08;20.65;;;8.52;;
38455;SDS011;24237;50.106;20.014;2022-09-29T03:56:35;14.57;;;9.10;;
38455;SDS011;24237;50.106;20.014;2022-09-29T03:59:01;17.45;;;8.88;;
38455;SDS011;24237;50.106;20.014;2022-09-29T04:01:29;18.67;;;9.90;;
38455;SDS011;24237;50.106;20.014;2022-09-29T04:03:56;15.43;;;9.65;;
38455;SDS011;24237;50.106;20.014;2022-09-29T04:06:22;21.27;;;10.63;;
38455;SDS011;24237;50.106;20.014;2022-09-29T04:08:48;16.15;;;9.77;;
38455;SDS011;24237;50.106;20.014;2022-09-29T04:11:13;17.65;;;10.10;;
38455;SDS011;24237;50.106;20.014;2022-09-29T04:13:39;21.63;;;10.48;;
38455;SDS011;24237;50.106;20.014;2022-09-29T04:16:05;14.63;;;9.88;;
38455;SDS011;24237;50.106;20.014;2022-09-29T04:18:31;17.35;;;9.95;;
38455;SDS011;24237;50.106;20.014;2022-09-29T04:20:58;17.25;;;9.30;;
38455;SDS011;24237;50.106;20.014;2022-09-29T04:23:27;18.80;;;10.33;;
38455;SDS011;24237;50.106;20.014;2022-09-29T04:25:54;16.98;;;11.38;;
38455;SDS011;24237;50.106;20.014;2022-09-29T04:28:20;19.65;;;10.00;;
38455;SDS011;24237;50.106;20.014;2022-09-29T04:30:46;22.45;;;11.02;;
38455;SDS011;24237;50.106;20.014;2022-09-29T04:33:12;19.33;;;10.00;;
38455;SDS011;24237;50.106;20.014;2022-09-29T04:35:38;16.77;;;10.35;;
38455;SDS011;24237;50.106;20.014;2022-09-29T04:38:03;17.77;;;9.65;;
38455;SDS011;24237;50.106;20.014;2022-09-29T04:40:29;17.10;;;10.20;;
38455;SDS011;24237;50.106;20.014;2022-09-29T04:42:55;18.55;;;9.90;;
38455;SDS011;24237;50.106;20.014;2022-09-29T04:45:20;17.63;;;9.80;;
38455;SDS011;24237;50.106;20.014;2022-09-29T04:47:46;15.00;;;9.50;;
38455;SDS011;24237;50.106;20.014;2022-09-29T04:50:12;18.90;;;10.30;;
38455;SDS011;24237;50.106;20.014;2022-09-29T04:52:40;17.42;;;10.38;;
38455;SDS011;24237;50.106;20.014;2022-09-29T04:55:07;18.52;;;9.98;;
38455;SDS011;24237;50.106;20.014;2022-09-29T04:57:35;18.27;;;9.40;;
38455;SDS011;24237;50.106;20.014;2022-09-29T05:00:02;21.08;;;11.18;;
38455;SDS011;24237;50.106;20.014;2022-09-29T05:02:29;20.65;;;10.40;;
38455;SDS011;24237;50.106;20.014;2022-09-29T05:04:54;18.83;;;10.25;;
38455;SDS011;24237;50.106;20.014;2022-09-29T05:07:20;21.10;;;11.57;;
38455;SDS011;24237;50.106;20.014;2022-09-29T05:09:46;19.50;;;11.13;;
38455;SDS011;24237;50.106;20.014;2022-09-29T05:12:11;18.70;;;9.82;;
38455;SDS011;24237;50.106;20.014;2022-09-29T05:14:37;21.55;;;10.88;;
38455;SDS011;24237;50.106;20.014;2022-09-29T05:17:06;19.10;;;11.15;;
38455;SDS011;24237;50.106;20.014;2022-09-29T05:19:31;16.55;;;10.15;;
38455;SDS011;24237;50.106;20.014;2022-09-29T05:22:00;23.17;;;11.50;;
38455;SDS011;24237;50.106;20.014;2022-09-29T05:24:32;21.27;;;11.23;;
38455;SDS011;24237;50.106;20.014;2022-09-29T05:26:58;18.25;;;11.23;;
38455;SDS011;24237;50.106;20.014;2022-09-29T05:29:23;23.50;;;11.25;;
38455;SDS011;24237;50.106;20.014;2022-09-29T05:31:52;20.42;;;11.38;;
38455;SDS011;24237;50.106;20.014;2022-09-29T05:34:18;19.95;;;11.32;;
38455;SDS011;24237;50.106;20.014;2022-09-29T05:39:49;25.98;;;12.65;;
38455;SDS011;24237;50.106;20.014;2022-09-29T05:42:23;22.35;;;10.60;;
38455;SDS011;24237;50.106;20.014;2022-09-29T05:44:49;22.38;;;12.23;;
38455;SDS011;24237;50.106;20.014;2022-09-29T05:47:56;19.48;;;11.10;;
38455;SDS011;24237;50.106;20.014;2022-09-29T05:54:00;18.48;;;10.65;;
38455;SDS011;24237;50.106;20.014;2022-09-29T05:56:26;20.25;;;10.82;;
38455;SDS011;24237;50.106;20.014;2022-09-29T05:58:52;21.67;;;10.63;;
38455;SDS011;24237;50.106;20.014;2022-09-29T06:01:19;16.50;;;9.43;;
38455;SDS011;24237;50.106;20.014;2022-09-29T06:03:49;20.58;;;10.90;;
38455;SDS011;24237;50.106;20.014;2022-09-29T06:06:18;20.42;;;11.48;;
38455;SDS011;24237;50.106;20.014;2022-09-29T06:08:46;18.27;;;11.18;;
38455;SDS011;24237;50.106;20.014;2022-09-29T06:11:13;19.35;;;10.60;;
38455;SDS011;24237;50.106;20.014;2022-09-29T06:13:42;22.13;;;11.63;;
38455;SDS011;24237;50.106;20.014;2022-09-29T06:16:09;21.55;;;11.48;;
38455;SDS011;24237;50.106;20.014;2022-09-29T06:18:35;23.65;;;11.20;;
38455;SDS011;24237;50.106;20.014;2022-09-29T06:21:02;20.38;;;10.52;;
38455;SDS011;24237;50.106;20.014;2022-09-29T06:23:30;19.65;;;10.43;;
38455;SDS011;24237;50.106;20.014;2022-09-29T06:25:59;19.42;;;9.75;;
38455;SDS011;24237;50.106;20.014;2022-09-29T06:28:26;18.40;;;9.63;;
38455;SDS011;24237;50.106;20.014;2022-09-29T06:30:57;20.43;;;10.80;;
38455;SDS011;24237;50.106;20.014;2022-09-29T06:33:27;25.80;;;12.43;;
38455;SDS011;24237;50.106;20.014;2022-09-29T06:35:53;24.48;;;12.32;;
38455;SDS011;24237;50.106;20.014;2022-09-29T06:38:38;25.50;;;11.65;;
38455;SDS011;24237;50.106;20.014;2022-09-29T06:41:04;22.05;;;11.63;;
38455;SDS011;24237;50.106;20.014;2022-09-29T06:43:30;21.30;;;11.90;;
38455;SDS011;24237;50.106;20.014;2022-09-29T06:45:55;27.27;;;13.32;;
38455;SDS011;24237;50.106;20.014;2022-09-29T06:48:33;23.20;;;12.65;;
38455;SDS011;24237;50.106;20.014;2022-09-29T06:50:59;25.20;;;12.77;;
38455;SDS011;24237;50.106;20.014;2022-09-29T06:53:27;24.05;;;12.23;;
38455;SDS011;24237;50.106;20.014;2022-09-29T06:55:53;25.08;;;12.13;;
38455;SDS011;24237;50.106;20.014;2022-09-29T06:58:22;21.20;;;12.88;;
38455;SDS011;24237;50.106;20.014;2022-09-29T07:00:48;22.58;;;12.93;;
38455;SDS011;24237;50.106;20.014;2022-09-29T07:03:14;21.75;;;11.95;;
38455;SDS011;24237;50.106;20.014;2022-09-29T07:05:39;24.23;;;13.05;;
38455;SDS011;24237;50.106;20.014;2022-09-29T07:08:05;26.80;;;12.82;;
38455;SDS011;24237;50.106;20.014;2022-09-29T07:10:31;26.13;;;13.45;;
38455;SDS011;24237;50.106;20.014;2022-09-29T07:12:57;26.67;;;13.73;;
38455;SDS011;24237;50.106;20.014;2022-09-29T07:15:23;23.85;;;12.85;;
38455;SDS011;24237;50.106;20.014;2022-09-29T07:17:55;27.02;;;12.93;;
38455;SDS011;24237;50.106;20.014;2022-09-29T07:20:28;25.30;;;13.50;;
38455;SDS011;24237;50.106;20.014;2022-09-29T07:22:55;24.38;;;12.57;;
38455;SDS011;24237;50.106;20.014;2022-09-29T07:25:21;22.17;;;11.57;;
38455;SDS011;24237;50.106;20.014;2022-09-29T07:27:48;20.70;;;10.73;;
38455;SDS011;24237;50.106;20.014;2022-09-29T07:30:15;18.92;;;10.88;;
38455;SDS011;24237;50.106;20.014;2022-09-29T07:32:41;24.42;;;12.48;;
38455;SDS011;24237;50.106;20.014;2022-09-29T07:35:07;22.80;;;13.18;;
38455;SDS011;24237;50.106;20.014;2022-09-29T07:37:33;20.80;;;10.63;;
38455;SDS011;24237;50.106;20.014;2022-09-29T07:39:58;15.40;;;9.93;;
38455;SDS011;24237;50.106;20.014;2022-09-29T07:42:26;21.23;;;10.40;;
38455;SDS011;24237;50.106;20.014;2022-09-29T07:44:56;19.88;;;9.15;;
38455;SDS011;24237;50.106;20.014;2022-09-29T07:47:21;15.80;;;9.13;;
38455;SDS011;24237;50.106;20.014;2022-09-29T07:49:47;13.32;;;7.78;;
38455;SDS011;24237;50.106;20.014;2022-09-29T07:52:13;13.25;;;8.52;;
38455;SDS011;24237;50.106;20.014;2022-09-29T07:54:42;20.00;;;9.80;;
38455;SDS011;24237;50.106;20.014;2022-09-29T07:57:08;19.17;;;9.60;;
38455;SDS011;24237;50.106;20.014;2022-09-29T07:59:33;14.13;;;9.32;;
38455;SDS011;24237;50.106;20.014;2022-09-29T08:01:59;14.98;;;8.13;;
38455;SDS011;24237;50.106;20.014;2022-09-29T08:04:26;12.88;;;7.30;;
38455;SDS011;24237;50.106;20.014;2022-09-29T08:06:52;11.52;;;6.82;;
38455;SDS011;24237;50.106;20.014;2022-09-29T08:09:30;10.35;;;6.22;;
38455;SDS011;24237;50.106;20.014;2022-09-29T08:11:56;16.85;;;7.00;;
38455;SDS011;24237;50.106;20.014;2022-09-29T08:14:22;10.52;;;7.68;;
38455;SDS011;24237;50.106;20.014;2022-09-29T08:16:47;14.43;;;7.20;;
38455;SDS011;24237;50.106;20.014;2022-09-29T08:19:13;13.93;;;7.90;;
38455;SDS011;24237;50.106;20.014;2022-09-29T08:21:40;14.23;;;7.40;;
38455;SDS011;24237;50.106;20.014;2022-09-29T08:24:06;15.23;;;7.85;;
38455;SDS011;24237;50.106;20.014;2022-09-29T08:26:32;15.18;;;8.02;;
38455;SDS011;24237;50.106;20.014;2022-09-29T08:29:00;15.68;;;8.48;;
38455;SDS011;24237;50.106;20.014;2022-09-29T08:31:26;17.92;;;9.25;;
38455;SDS011;24237;50.106;20.014;2022-09-29T08:33:52;19.50;;;9.55;;
38455;SDS011;24237;50.106;20.014;2022-09-29T08:36:23;14.90;;;8.65;;
38455;SDS011;24237;50.106;20.014;2022-09-29T08:38:49;20.17;;;9.23;;
38455;SDS011;24237;50.106;20.014;2022-09-29T08:44:08;17.48;;;9.45;;
38455;SDS011;24237;50.106;20.014;2022-09-29T08:46:51;18.30;;;8.40;;
38455;SDS011;24237;50.106;20.014;2022-09-29T08:49:38;17.02;;;8.57;;
38455;SDS011;24237;50.106;20.014;2022-09-29T08:52:20;14.47;;;7.80;;
38455;SDS011;24237;50.106;20.014;2022-09-29T08:54:55;16.52;;;8.05;;
38455;SDS011;24237;50.106;20.014;2022-09-29T08:57:43;15.40;;;7.22;;
38455;SDS011;24237;50.106;20.014;2022-09-29T09:00:28;11.63;;;7.68;;
38455;SDS011;24237;50.106;20.014;2022-09-29T09:11:48;13.90;;;7.38;;
38455;SDS011;24237;50.106;20.014;2022-09-29T09:20:34;19.55;;;6.10;;
38455;SDS011;24237;50.106;20.014;2022-09-29T09:26:04;15.93;;;7.13;;
38455;SDS011;24237;50.106;20.014;2022-09-29T09:31:12;15.23;;;8.15;;
38455;SDS011;24237;50.106;20.014;2022-09-29T09:36:43;16.35;;;7.15;;
38455;SDS011;24237;50.106;20.014;2022-09-29T09:39:14;16.08;;;6.93;;
38455;SDS011;24237;50.106;20.014;2022-09-29T09:41:41;12.48;;;5.88;;
38455;SDS011;24237;50.106;20.014;2022-09-29T09:51:55;13.65;;;7.00;;
38455;SDS011;24237;50.106;20.014;2022-09-29T09:54:37;13.25;;;8.57;;
38455;SDS011;24237;50.106;20.014;2022-09-29T10:02:46;33.95;;;15.43;;
38455;SDS011;24237;50.106;20.014;2022-09-29T10:05:19;23.38;;;13.75;;
38455;SDS011;24237;50.106;20.014;2022-09-29T10:07:50;27.73;;;16.08;;
38455;SDS011;24237;50.106;20.014;2022-09-29T10:10:21;28.63;;;17.35;;
38455;SDS011;24237;50.106;20.014;2022-09-29T10:12:50;29.75;;;17.70;;
38455;SDS011;24237;50.106;20.014;2022-09-29T10:15:32;27.13;;;13.60;;
38455;SDS011;24237;50.106;20.014;2022-09-29T10:18:15;25.08;;;14.88;;
38455;SDS011;24237;50.106;20.014;2022-09-29T10:20:48;24.65;;;15.77;;
38455;SDS011;24237;50.106;20.014;2022-09-29T10:23:22;25.40;;;15.80;;
38455;SDS011;24237;50.106;20.014;2022-09-29T10:25:54;24.45;;;15.68;;
38455;SDS011;24237;50.106;20.014;2022-09-29T10:28:44;30.67;;;17.52;;
38455;SDS011;24237;50.106;20.014;2022-09-29T10:31:25;26.55;;;16.20;;
38455;SDS011;24237;50.106;20.014;2022-09-29T10:33:56;23.52;;;14.90;;
38455;SDS011;24237;50.106;20.014;2022-09-29T10:36:25;26.00;;;14.88;;
38455;SDS011;24237;50.106;20.014;2022-09-29T10:38:54;27.65;;;16.42;;
38455;SDS011;24237;50.106;20.014;2022-09-29T10:41:21;26.30;;;15.93;;
38455;SDS011;24237;50.106;20.014;2022-09-29T10:43:47;28.70;;;15.95;;
38455;SDS011;24237;50.106;20.014;2022-09-29T10:49:08;32.13;;;17.15;;
38455;SDS011;24237;50.106;20.014;2022-09-29T10:51:38;30.73;;;16.55;;
38455;SDS011;24237;50.106;20.014;2022-09-29T10:54:07;24.90;;;16.23;;
38455;SDS011;24237;50.106;20.014;2022-09-29T10:56:35;26.52;;;15.55;;
38455;SDS011;24237;50.106;20.014;2022-09-29T10:59:09;28.23;;;15.80;;
38455;SDS011;24237;50.106;20.014;2022-09-29T11:01:41;31.17;;;15.48;;
38455;SDS011;24237;50.106;20.014;2022-09-29T11:04:14;27.33;;;16.40;;
38455;SDS011;24237;50.106;20.014;2022-09-29T11:06:46;28.25;;;16.73;;
38455;SDS011;24237;50.106;20.014;2022-09-29T11:14:30;25.67;;;14.98;;
38455;SDS011;24237;50.106;20.014;2022-09-29T11:17:20;37.42;;;16.25;;
38455;SDS011;24237;50.106;20.014;2022-09-29T11:20:16;27.65;;;15.38;;
38455;SDS011;24237;50.106;20.014;2022-09-29T11:28:18;19.38;;;11.35;;
38455;SDS011;24237;50.106;20.014;2022-09-29T11:40:30;18.25;;;9.93;;
38455;SDS011;24237;50.106;20.014;2022-09-29T12:03:27;17.50;;;9.27;;
38455;SDS011;24237;50.106;20.014;2022-09-29T12:12:03;15.05;;;7.68;;
38455;SDS011;24237;50.106;20.014;2022-09-29T12:17:43;14.30;;;8.80;;
38455;SDS011;24237;50.106;20.014;2022-09-29T12:20:22;13.70;;;8.43;;
38455;SDS011;24237;50.106;20.014;2022-09-29T12:23:06;17.20;;;8.52;;
38455;SDS011;24237;50.106;20.014;2022-09-29T12:31:40;16.10;;;7.55;;
38455;SDS011;24237;50.106;20.014;2022-09-29T12:36:46;17.70;;;8.38;;
38455;SDS011;24237;50.106;20.014;2022-09-29T12:39:31;14.60;;;7.03;;
38455;SDS011;24237;50.106;20.014;2022-09-29T12:53:38;21.15;;;7.28;;
38455;SDS011;24237;50.106;20.014;2022-09-29T12:58:56;16.40;;;5.40;;
38455;SDS011;24237;50.106;20.014;2022-09-29T13:01:31;14.60;;;6.90;;
38455;SDS011;24237;50.106;20.014;2022-09-29T13:12:09;16.80;;;6.43;;
38455;SDS011;24237;50.106;20.014;2022-09-29T13:17:37;12.75;;;6.03;;
38455;SDS011;24237;50.106;20.014;2022-09-29T13:22:59;12.75;;;6.18;;
38455;SDS011;24237;50.106;20.014;2022-09-29T13:28:40;5.20;;;3.70;;
38455;SDS011;24237;50.106;20.014;2022-09-29T13:31:11;16.52;;;5.38;;
38455;SDS011;24237;50.106;20.014;2022-09-29T13:33:44;14.20;;;8.13;;
38455;SDS011;24237;50.106;20.014;2022-09-29T13:39:19;16.55;;;5.55;;
38455;SDS011;24237;50.106;20.014;2022-09-29T13:41:54;19.85;;;5.20;;
38455;SDS011;24237;50.106;20.014;2022-09-29T13:44:21;7.55;;;3.85;;
38455;SDS011;24237;50.106;20.014;2022-09-29T13:46:53;9.07;;;4.18;;
38455;SDS011;24237;50.106;20.014;2022-09-29T13:51:55;24.52;;;5.68;;
38455;SDS011;24237;50.106;20.014;2022-09-29T13:59:23;15.82;;;4.82;;
38455;SDS011;24237;50.106;20.014;2022-09-29T14:01:51;15.73;;;6.70;;
38455;SDS011;24237;50.106;20.014;2022-09-29T14:10:21;14.68;;;6.03;;
38455;SDS011;24237;50.106;20.014;2022-09-29T14:12:55;18.85;;;7.78;;
38455;SDS011;24237;50.106;20.014;2022-09-29T14:15:25;13.77;;;5.93;;
38455;SDS011;24237;50.106;20.014;2022-09-29T14:21:00;14.70;;;6.43;;
38455;SDS011;24237;50.106;20.014;2022-09-29T14:23:46;19.17;;;6.78;;
38455;SDS011;24237;50.106;20.014;2022-09-29T14:29:27;14.13;;;5.55;;
38455;SDS011;24237;50.106;20.014;2022-09-29T14:31:57;18.50;;;6.10;;
38455;SDS011;24237;50.106;20.014;2022-09-29T14:34:26;9.30;;;3.70;;
38455;SDS011;24237;50.106;20.014;2022-09-29T14:36:56;9.88;;;3.25;;
38455;SDS011;24237;50.106;20.014;2022-09-29T14:39:24;6.82;;;3.22;;
38455;SDS011;24237;50.106;20.014;2022-09-29T14:41:51;4.55;;;2.83;;
38455;SDS011;24237;50.106;20.014;2022-09-29T14:44:38;6.68;;;3.30;;
38455;SDS011;24237;50.106;20.014;2022-09-29T14:47:38;5.32;;;2.90;;
38455;SDS011;24237;50.106;20.014;2022-09-29T14:51:08;5.45;;;2.97;;
38455;SDS011;24237;50.106;20.014;2022-09-29T14:54:04;6.43;;;2.65;;
38455;SDS011;24237;50.106;20.014;2022-09-29T14:59:30;7.95;;;3.28;;
38455;SDS011;24237;50.106;20.014;2022-09-29T15:02:20;7.40;;;2.90;;
38455;SDS011;24237;50.106;20.014;2022-09-29T15:04:49;3.67;;;2.67;;
38455;SDS011;24237;50.106;20.014;2022-09-29T15:07:19;5.63;;;2.50;;
38455;SDS011;24237;50.106;20.014;2022-09-29T15:09:57;4.65;;;2.70;;
38455;SDS011;24237;50.106;20.014;2022-09-29T15:12:25;3.75;;;2.67;;
38455;SDS011;24237;50.106;20.014;2022-09-29T15:14:54;3.75;;;2.75;;
38455;SDS011;24237;50.106;20.014;2022-09-29T15:23:14;3.85;;;2.63;;
38455;SDS011;24237;50.106;20.014;2022-09-29T15:26:02;4.03;;;2.15;;
38455;SDS011;24237;50.106;20.014;2022-09-29T15:28:49;4.45;;;1.90;;
38455;SDS011;24237;50.106;20.014;2022-09-29T15:31:16;8.30;;;2.28;;
38455;SDS011;24237;50.106;20.014;2022-09-29T15:33:45;4.53;;;2.35;;
38455;SDS011;24237;50.106;20.014;2022-09-29T15:36:16;8.15;;;2.00;;
38455;SDS011;24237;50.106;20.014;2022-09-29T15:38:57;4.43;;;2.47;;
38455;SDS011;24237;50.106;20.014;2022-09-29T15:41:46;7.18;;;2.13;;
38455;SDS011;24237;50.106;20.014;2022-09-29T15:44:12;9.02;;;2.55;;
38455;SDS011;24237;50.106;20.014;2022-09-29T15:46:51;5.03;;;2.60;;
38455;SDS011;24237;50.106;20.014;2022-09-29T15:49:24;3.05;;;2.20;;
38455;SDS011;24237;50.106;20.014;2022-09-29T15:54:22;4.15;;;2.80;;
38455;SDS011;24237;50.106;20.014;2022-09-29T15:56:53;3.88;;;2.20;;
38455;SDS011;24237;50.106;20.014;2022-09-29T16:02:30;3.92;;;2.15;;
38455;SDS011;24237;50.106;20.014;2022-09-29T16:05:08;35.13;;;19.50;;
38455;SDS011;24237;50.106;20.014;2022-09-29T16:07:39;8.05;;;4.72;;
38455;SDS011;24237;50.106;20.014;2022-09-29T16:10:20;6.28;;;2.33;;
38455;SDS011;24237;50.106;20.014;2022-09-29T16:12:54;6.53;;;2.33;;
38455;SDS011;24237;50.106;20.014;2022-09-29T16:15:39;4.85;;;2.63;;
38455;SDS011;24237;50.106;20.014;2022-09-29T16:18:08;6.13;;;2.15;;
38455;SDS011;24237;50.106;20.014;2022-09-29T16:20:46;3.38;;;2.50;;
38455;SDS011;24237;50.106;20.014;2022-09-29T16:23:18;4.25;;;2.42;;
38455;SDS011;24237;50.106;20.014;2022-09-29T16:26:12;5.82;;;2.00;;
38455;SDS011;24237;50.106;20.014;2022-09-29T16:28:38;4.32;;;1.55;;
38455;SDS011;24237;50.106;20.014;2022-09-29T16:31:23;5.60;;;1.95;;
38455;SDS011;24237;50.106;20.014;2022-09-29T16:33:54;7.80;;;2.22;;
38455;SDS011;24237;50.106;20.014;2022-09-29T16:39:00;10.27;;;2.40;;
38455;SDS011;24237;50.106;20.014;2022-09-29T16:49:20;10.50;;;3.25;;
38455;SDS011;24237;50.106;20.014;2022-09-29T16:51:50;6.07;;;2.85;;
38455;SDS011;24237;50.106;20.014;2022-09-29T16:54:22;3.78;;;1.83;;
38455;SDS011;24237;50.106;20.014;2022-09-29T16:57:08;5.35;;;3.53;;
38455;SDS011;24237;50.106;20.014;2022-09-29T16:59:47;5.35;;;2.75;;
38455;SDS011;24237;50.106;20.014;2022-09-29T17:02:34;10.68;;;3.00;;
38455;SDS011;24237;50.106;20.014;2022-09-29T17:07:50;10.60;;;3.78;;
38455;SDS011;24237;50.106;20.014;2022-09-29T17:10:24;9.90;;;4.28;;
38455;SDS011;24237;50.106;20.014;2022-09-29T17:12:50;13.55;;;5.18;;
38455;SDS011;24237;50.106;20.014;2022-09-29T17:15:16;16.33;;;6.25;;
38455;SDS011;24237;50.106;20.014;2022-09-29T17:17:45;12.18;;;4.75;;
38455;SDS011;24237;50.106;20.014;2022-09-29T17:20:14;12.25;;;4.97;;
38455;SDS011;24237;50.106;20.014;2022-09-29T17:22:42;13.30;;;4.90;;
38455;SDS011;24237;50.106;20.014;2022-09-29T17:25:09;9.07;;;5.03;;
38455;SDS011;24237;50.106;20.014;2022-09-29T17:27:37;11.45;;;5.00;;
38455;SDS011;24237;50.106;20.014;2022-09-29T17:30:22;18.30;;;6.53;;
38455;SDS011;24237;50.106;20.014;2022-09-29T17:32:51;9.93;;;4.53;;
38455;SDS011;24237;50.106;20.014;2022-09-29T17:35:27;12.13;;;4.30;;
38455;SDS011;24237;50.106;20.014;2022-09-29T17:38:13;8.88;;;4.30;;
38455;SDS011;24237;50.106;20.014;2022-09-29T17:40:55;8.68;;;4.10;;
38455;SDS011;24237;50.106;20.014;2022-09-29T17:43:26;8.25;;;3.90;;
38455;SDS011;24237;50.106;20.014;2022-09-29T17:45:53;9.73;;;3.97;;
38455;SDS011;24237;50.106;20.014;2022-09-29T17:48:19;6.47;;;3.45;;
38455;SDS011;24237;50.106;20.014;2022-09-29T17:50:49;8.35;;;3.50;;
38455;SDS011;24237;50.106;20.014;2022-09-29T17:53:20;28.98;;;12.43;;
38455;SDS011;24237;50.106;20.014;2022-09-29T17:55:47;7.68;;;4.03;;
38455;SDS011;24237;50.106;20.014;2022-09-29T17:58:16;10.18;;;4.00;;
38455;SDS011;24237;50.106;20.014;2022-09-29T18:00:43;11.98;;;5.07;;
38455;SDS011;24237;50.106;20.014;2022-09-29T18:03:12;8.85;;;4.65;;
38455;SDS011;24237;50.106;20.014;2022-09-29T18:05:39;8.18;;;4.35;;
38455;SDS011;24237;50.106;20.014;2022-09-29T18:08:08;8.65;;;4.75;;
38455;SDS011;24237;50.106;20.014;2022-09-29T18:13:16;10.93;;;5.10;;
38455;SDS011;24237;50.106;20.014;2022-09-29T18:15:43;11.25;;;5.38;;
38455;SDS011;24237;50.106;20.014;2022-09-29T18:18:10;12.18;;;5.85;;
38455;SDS011;24237;50.106;20.014;2022-09-29T18:20:39;10.63;;;5.70;;
38455;SDS011;24237;50.106;20.014;2022-09-29T18:23:06;19.85;;;5.57;;
38455;SDS011;24237;50.106;20.014;2022-09-29T18:25:32;9.80;;;5.50;;
38455;SDS011;24237;50.106;20.014;2022-09-29T18:27:59;7.53;;;4.78;;